sensor_id;sensor_type;location;lat;lon;timestamp;pressure;altitude;pressure_sealevel;temperature;humidity
66666;BME280;53566;50.814;20.688;2022-08-07T00:00:14;102390.34;;;12.7;87.52
66666;BME280;53566;50.814;20.688;2022-08-07T00:07:14;102426.95;;;12.56;86.92
66666;BME280;53566;50.814;20.688;2022-08-07T00:14:02;102413.5;;;12.37;87.47
66666;BME280;53566;50.814;20.688;2022-08-07T00:21:17;102317.81;;;12.26;87.78
66666;BME280;53566;50.814;20.688;2022-08-07T00:28:17;102410.0;;;12.05;87.92999999999999
66666;BME280;53566;50.814;20.688;2022-08-07T00:35:02;102363.14;;;12.020000000000001;87.64
66666;BME280;53566;50.814;20.688;2022-08-07T00:42:03;102408.63;;;11.87;87.98
66666;BME280;53566;50.814;20.688;2022-08-07T00:49:22;102371.31;;;11.87;87.4
66666;BME280;53566;50.814;20.688;2022-08-07T00:56:18;102351.09;;;11.82;88.21000000000001
66666;BME280;53566;50.814;20.688;2022-08-07T01:00:20;102311.11;;;11.799999999999999;88.22999999999999
66666;BME280;53566;50.814;20.688;2022-08-07T01:07:04;102303.6;;;11.77;88.49
66666;BME280;53566;50.814;20.688;2022-08-07T01:14:23;102424.25;;;11.73;89.41
66666;BME280;53566;50.814;20.688;2022-08-07T01:21:27;102288.02;;;11.64;89.41
66666;BME280;53566;50.814;20.688;2022-08-07T01:28:17;102472.84;;;11.67;90.45
66666;BME280;53566;50.814;20.688;2022-08-07T01:35:17;102475.63;;;11.57;90.63
66666;BME280;53566;50.814;20.688;2022-08-07T01:42:16;102395.78;;;11.59;91.24
66666;BME280;53566;50.814;20.688;2022-08-07T01:49:22;102305.2;;;11.48;91.18
66666;BME280;53566;50.814;20.688;2022-08-07T01:56:25;102413.84;;;11.49;91.25
66666;BME280;53566;50.814;20.688;2022-08-07T02:00:30;102477.51;;;11.479999999999999;91.59
66666;BME280;53566;50.814;20.688;2022-08-07T02:07:15;102320.75;;;11.37;91.87
66666;BME280;53566;50.814;20.688;2022-08-07T02:14:28;102307.51;;;11.36;92.27
66666;BME280;53566;50.814;20.688;2022-08-07T02:21:04;102358.82;;;11.270000000000001;92.4
66666;BME280;53566;50.814;20.688;2022-08-07T02:28:03;102440.75;;;11.18;93.4
66666;BME280;53566;50.814;20.688;2022-08-07T02:35:04;102459.89;;;11.15;93.92
66666;BME280;53566;50.814;20.688;2022-08-07T02:42:23;102287.03;;;11.14;93.67
66666;BME280;53566;50.814;20.688;2022-08-07T02:49:22;102310.75;;;11.04;94.51
66666;BME280;53566;50.814;20.688;2022-08-07T02:56:29;102351.56;;;11.06;94.26
66666;BME280;53566;50.814;20.688;2022-08-07T03:00:28;102329.86;;;11.139999999999999;94.13
66666;BME280;53566;50.814;20.688;2022-08-07T03:07:22;102467.91;;;11.07;95.03
66666;BME280;53566;50.814;20.688;2022-08-07T03:14:22;102285.3;;;11.0;95.11
66666;BME280;53566;50.814;20.688;2022-08-07T03:21:06;102454.96;;;11.0;95.67
66666;BME280;53566;50.814;20.688;2022-08-07T03:28:03;102380.56;;;11.04;95.33999999999999
66666;BME280;53566;50.814;20.688;2022-08-07T03:35:04;102393.27;;;10.95;96.02
66666;BME280;53566;50.814;20.688;2022-08-07T03:42:18;102317.67;;;11.02;96.29
66666;BME280;53566;50.814;20.688;2022-08-07T03:49:18;102377.76;;;10.969999999999999;96.03
66666;BME280;53566;50.814;20.688;2022-08-07T03:56:03;102298.81;;;10.92;96.54
66666;BME280;53566;50.814;20.688;2022-08-07T04:00:03;102400.4;;;10.94;97.0
66666;BME280;53566;50.814;20.688;2022-08-07T04:07:03;102344.07;;;10.959999999999999;97.15
66666;BME280;53566;50.814;20.688;2022-08-07T04:14:02;102477.94;;;10.969999999999999;96.65
66666;BME280;53566;50.814;20.688;2022-08-07T04:21:18;102375.24;;;11.07;96.13
66666;BME280;53566;50.814;20.688;2022-08-07T04:28:23;102511.31;;;11.11;96.27
66666;BME280;53566;50.814;20.688;2022-08-07T04:35:06;102387.66;;;11.200000000000001;95.66
66666;BME280;53566;50.814;20.688;2022-08-07T04:42:18;102515.55;;;11.19;95.86999999999999
66666;BME280;53566;50.814;20.688;2022-08-07T04:56:07;102474.34;;;11.53;95.82
66666;BME280;53566;50.814;20.688;2022-08-07T05:00:54;102383.44;;;11.67;95.63
66666;BME280;53566;50.814;20.688;2022-08-07T05:07:22;102348.56;;;11.790000000000001;95.08
66666;BME280;53566;50.814;20.688;2022-08-07T05:14:40;102466.67;;;12.19;95.06
66666;BME280;53566;50.814;20.688;2022-08-07T05:21:26;102340.35;;;12.540000000000001;94.44
66666;BME280;53566;50.814;20.688;2022-08-07T05:28:22;102409.32;;;13.17;92.91
66666;BME280;53566;50.814;20.688;2022-08-07T05:35:24;102505.05;;;13.649999999999999;92.28999999999999
66666;BME280;53566;50.814;20.688;2022-08-07T05:42:06;102336.77;;;14.03;91.57
66666;BME280;53566;50.814;20.688;2022-08-07T05:49:04;102495.57;;;14.770000000000001;90.66
66666;BME280;53566;50.814;20.688;2022-08-07T05:56:02;102359.71;;;15.21;90.32
66666;BME280;53566;50.814;20.688;2022-08-07T06:00:11;102485.3;;;15.440000000000001;89.33
66666;BME280;53566;50.814;20.688;2022-08-07T06:07:20;102482.54;;;15.75;89.23
66666;BME280;53566;50.814;20.688;2022-08-07T06:14:16;102419.27;;;15.979999999999999;88.45
66666;BME280;53566;50.814;20.688;2022-08-07T06:21:06;102380.79;;;16.06;88.04
66666;BME280;53566;50.814;20.688;2022-08-07T06:28:10;102462.61;;;16.16;87.13
66666;BME280;53566;50.814;20.688;2022-08-07T06:35:04;102363.46;;;16.16;86.55
66666;BME280;53566;50.814;20.688;2022-08-07T06:42:51;102511.03;;;16.25;85.39
66666;BME280;53566;50.814;20.688;2022-08-07T06:49:04;102550.39;;;16.39;84.63
66666;BME280;53566;50.814;20.688;2022-08-07T06:56:12;102485.58;;;16.509999999999998;83.88
66666;BME280;53566;50.814;20.688;2022-08-07T07:00:02;102528.86;;;16.64;83.1
66666;BME280;53566;50.814;20.688;2022-08-07T07:07:08;102514.36;;;16.830000000000002;82.50999999999999
66666;BME280;53566;50.814;20.688;2022-08-07T07:14:27;102389.56;;;17.380000000000003;81.38
66666;BME280;53566;50.814;20.688;2022-08-07T07:21:37;102507.41;;;17.89;81.04
66666;BME280;53566;50.814;20.688;2022-08-07T07:28:54;102438.0;;;18.41;80.11
66666;BME280;53566;50.814;20.688;2022-08-07T07:35:04;102431.38;;;18.689999999999998;79.75999999999999
66666;BME280;53566;50.814;20.688;2022-08-07T07:42:29;102464.09;;;19.17;78.96
66666;BME280;53566;50.814;20.688;2022-08-07T07:49:05;102456.29;;;19.650000000000002;78.61999999999999
66666;BME280;53566;50.814;20.688;2022-08-07T07:56:24;102485.09;;;19.71;77.87
66666;BME280;53566;50.814;20.688;2022-08-07T08:00:32;102489.61;;;20.0;77.61
66666;BME280;53566;50.814;20.688;2022-08-07T08:07:14;102433.77;;;20.029999999999998;77.15
66666;BME280;53566;50.814;20.688;2022-08-07T08:14:04;102356.49;;;20.240000000000002;76.31
66666;BME280;53566;50.814;20.688;2022-08-07T08:28:24;102451.85;;;20.59;75.32
66666;BME280;53566;50.814;20.688;2022-08-07T08:35:04;102375.16;;;20.69;75.59
66666;BME280;53566;50.814;20.688;2022-08-07T08:42:21;102464.61;;;20.67;74.83
66666;BME280;53566;50.814;20.688;2022-08-07T08:56:29;102377.36;;;20.74;72.97
66666;BME280;53566;50.814;20.688;2022-08-07T09:00:17;102397.07;;;20.85;72.74
66666;BME280;53566;50.814;20.688;2022-08-07T09:07:09;102344.99;;;20.82;72.17
66666;BME280;53566;50.814;20.688;2022-08-07T09:28:37;102518.27;;;20.580000000000002;68.92
66666;BME280;53566;50.814;20.688;2022-08-07T09:42:37;102326.88;;;20.509999999999998;68.04
66666;BME280;53566;50.814;20.688;2022-08-07T09:49:39;102503.33;;;20.779999999999998;67.24
66666;BME280;53566;50.814;20.688;2022-08-07T09:56:22;102402.28;;;20.96;66.6
66666;BME280;53566;50.814;20.688;2022-08-07T10:00:42;102367.31;;;20.99;66.01
66666;BME280;53566;50.814;20.688;2022-08-07T10:07:33;102372.48;;;21.29;66.08
66666;BME280;53566;50.814;20.688;2022-08-07T10:14:22;102493.61;;;21.46;65.1
66666;BME280;53566;50.814;20.688;2022-08-07T10:21:57;102307.08;;;21.48;64.33
66666;BME280;53566;50.814;20.688;2022-08-07T10:28:40;102471.91;;;21.6;63.81
66666;BME280;53566;50.814;20.688;2022-08-07T10:35:32;102303.4;;;21.580000000000002;63.16
66666;BME280;53566;50.814;20.688;2022-08-07T10:42:30;102286.3;;;21.6;62.64
66666;BME280;53566;50.814;20.688;2022-08-07T10:49:40;102367.19;;;21.32;62.43
66666;BME280;53566;50.814;20.688;2022-08-07T10:56:08;102407.37;;;21.369999999999997;62.36
66666;BME280;53566;50.814;20.688;2022-08-07T11:00:05;102375.35;;;21.26;61.440000000000005
66666;BME280;53566;50.814;20.688;2022-08-07T11:07:08;102386.6;;;21.319999999999997;61.13
66666;BME280;53566;50.814;20.688;2022-08-07T11:14:20;102265.09;;;21.29;60.31
66666;BME280;53566;50.814;20.688;2022-08-07T11:28:50;102393.47;;;21.509999999999998;59.51
66666;BME280;53566;50.814;20.688;2022-08-07T11:35:10;102247.62;;;21.44;59.089999999999996
66666;BME280;53566;50.814;20.688;2022-08-07T11:56:58;102376.38;;;21.74;58.18
66666;BME280;53566;50.814;20.688;2022-08-07T12:00:14;102382.19;;;21.650000000000002;57.87
66666;BME280;53566;50.814;20.688;2022-08-07T12:07:08;102325.33;;;21.69;57.29
66666;BME280;53566;50.814;20.688;2022-08-07T12:14:29;102319.5;;;21.89;56.54
66666;BME280;53566;50.814;20.688;2022-08-07T12:21:13;102228.59;;;22.06;56.26
66666;BME280;53566;50.814;20.688;2022-08-07T12:35:23;102224.58;;;22.09;55.39
66666;BME280;53566;50.814;20.688;2022-08-07T12:42:33;102297.72;;;22.279999999999998;55.0
66666;BME280;53566;50.814;20.688;2022-08-07T12:50:01;102346.67;;;22.3;54.33
66666;BME280;53566;50.814;20.688;2022-08-07T12:56:31;102274.07;;;22.33;54.3
66666;BME280;53566;50.814;20.688;2022-08-07T13:00:15;102325.32;;;22.450000000000003;53.96
66666;BME280;53566;50.814;20.688;2022-08-07T13:14:58;102170.58;;;22.389999999999997;52.8
66666;BME280;53566;50.814;20.688;2022-08-07T13:21:26;102272.43;;;22.34;52.269999999999996
66666;BME280;53566;50.814;20.688;2022-08-07T13:28:46;102244.84;;;22.39;51.66
66666;BME280;53566;50.814;20.688;2022-08-07T13:35:04;102187.58;;;22.53;51.78
66666;BME280;53566;50.814;20.688;2022-08-07T13:42:27;102264.16;;;22.59;51.14
66666;BME280;53566;50.814;20.688;2022-08-07T13:49:06;102209.46;;;22.520000000000003;51.050000000000004
66666;BME280;53566;50.814;20.688;2022-08-07T13:56:28;102169.37;;;22.470000000000002;51.04
66666;BME280;53566;50.814;20.688;2022-08-07T14:00:20;102282.84;;;22.41;51.050000000000004
66666;BME280;53566;50.814;20.688;2022-08-07T14:07:05;102135.18;;;22.610000000000003;50.82
66666;BME280;53566;50.814;20.688;2022-08-07T14:14:15;102328.86;;;22.43;50.940000000000005
66666;BME280;53566;50.814;20.688;2022-08-07T14:21:49;102261.68;;;22.49;50.56
66666;BME280;53566;50.814;20.688;2022-08-07T14:28:06;102282.38;;;22.52;50.35
66666;BME280;53566;50.814;20.688;2022-08-07T14:35:06;102168.57;;;22.419999999999998;50.42
66666;BME280;53566;50.814;20.688;2022-08-07T14:42:27;102309.0;;;22.41;50.27
66666;BME280;53566;50.814;20.688;2022-08-07T14:49:41;102263.47;;;22.28;50.04
66666;BME280;53566;50.814;20.688;2022-08-07T14:56:23;102237.97;;;22.16;50.21
66666;BME280;53566;50.814;20.688;2022-08-07T15:00:35;102137.67;;;22.21;50.08
66666;BME280;53566;50.814;20.688;2022-08-07T15:07:26;102120.39;;;22.09;49.85
66666;BME280;53566;50.814;20.688;2022-08-07T15:14:46;102147.94;;;22.09;49.650000000000006
66666;BME280;53566;50.814;20.688;2022-08-07T15:21:11;102104.86;;;21.99;49.88
66666;BME280;53566;50.814;20.688;2022-08-07T15:28:20;102190.63;;;21.82;49.85
66666;BME280;53566;50.814;20.688;2022-08-07T15:35:14;102207.18;;;21.950000000000003;50.129999999999995
66666;BME280;53566;50.814;20.688;2022-08-07T15:42:36;102259.86;;;21.79;50.21
66666;BME280;53566;50.814;20.688;2022-08-07T15:49:29;102258.58;;;21.68;50.31
66666;BME280;53566;50.814;20.688;2022-08-07T15:56:39;102170.28;;;21.69;49.92
66666;BME280;53566;50.814;20.688;2022-08-07T16:00:34;102152.83;;;21.66;50.14
66666;BME280;53566;50.814;20.688;2022-08-07T16:07:04;102106.45;;;21.47;49.95
66666;BME280;53566;50.814;20.688;2022-08-07T16:14:15;102257.93;;;21.380000000000003;50.25
66666;BME280;53566;50.814;20.688;2022-08-07T16:42:32;102141.42;;;20.97;51.19
66666;BME280;53566;50.814;20.688;2022-08-07T16:57:02;102241.72;;;20.81;51.85
66666;BME280;53566;50.814;20.688;2022-08-07T17:00:21;102176.9;;;20.71;52.24
66666;BME280;53566;50.814;20.688;2022-08-07T17:07:50;102197.93;;;20.51;52.47
66666;BME280;53566;50.814;20.688;2022-08-07T17:14:19;102108.78;;;20.53;53.22
66666;BME280;53566;50.814;20.688;2022-08-07T17:21:21;102201.74;;;20.4;53.33
66666;BME280;53566;50.814;20.688;2022-08-07T17:28:53;102083.96;;;20.35;54.06
66666;BME280;53566;50.814;20.688;2022-08-07T17:36:01;102194.73;;;20.119999999999997;54.519999999999996
66666;BME280;53566;50.814;20.688;2022-08-07T17:42:04;102158.63;;;20.0;55.050000000000004
66666;BME280;53566;50.814;20.688;2022-08-07T17:56:21;102139.79;;;19.55;56.89
66666;BME280;53566;50.814;20.688;2022-08-07T18:00:34;102121.31;;;19.42;57.21
66666;BME280;53566;50.814;20.688;2022-08-07T18:08:02;102155.4;;;19.31;58.14
66666;BME280;53566;50.814;20.688;2022-08-07T18:14:10;102193.41;;;19.02;59.11
66666;BME280;53566;50.814;20.688;2022-08-07T18:21:53;102256.8;;;18.91;59.68
66666;BME280;53566;50.814;20.688;2022-08-07T18:28:32;102229.08;;;18.66;60.72
66666;BME280;53566;50.814;20.688;2022-08-07T18:42:14;102147.73;;;18.57;60.65
66666;BME280;53566;50.814;20.688;2022-08-07T18:49:22;102223.27;;;18.23;61.75
66666;BME280;53566;50.814;20.688;2022-08-07T18:56:10;102214.85;;;17.990000000000002;62.519999999999996
66666;BME280;53566;50.814;20.688;2022-08-07T19:01:00;102281.25;;;17.77;63.019999999999996
66666;BME280;53566;50.814;20.688;2022-08-07T19:07:15;102172.18;;;17.53;63.47
66666;BME280;53566;50.814;20.688;2022-08-07T19:14:15;102184.21;;;17.19;64.47
66666;BME280;53566;50.814;20.688;2022-08-07T19:21:58;102264.04;;;16.87;64.73
66666;BME280;53566;50.814;20.688;2022-08-07T19:28:20;102316.79;;;16.490000000000002;65.86
66666;BME280;53566;50.814;20.688;2022-08-07T19:35:36;102188.8;;;16.31;66.85000000000001
66666;BME280;53566;50.814;20.688;2022-08-07T19:42:15;102167.9;;;16.06;67.14
66666;BME280;53566;50.814;20.688;2022-08-07T19:49:49;102253.63;;;15.85;67.74
66666;BME280;53566;50.814;20.688;2022-08-07T19:56:26;102244.4;;;15.75;68.23
66666;BME280;53566;50.814;20.688;2022-08-07T20:00:05;102178.07;;;15.59;68.73
66666;BME280;53566;50.814;20.688;2022-08-07T20:07:13;102219.66;;;15.42;68.76
66666;BME280;53566;50.814;20.688;2022-08-07T20:14:03;102213.28;;;15.1;69.56
66666;BME280;53566;50.814;20.688;2022-08-07T20:21:25;102296.41;;;15.0;69.54
66666;BME280;53566;50.814;20.688;2022-08-07T20:28:15;102199.31;;;14.790000000000001;70.83
66666;BME280;53566;50.814;20.688;2022-08-07T20:35:06;102215.96;;;14.73;71.12
66666;BME280;53566;50.814;20.688;2022-08-07T20:42:14;102308.54;;;14.56;70.87
66666;BME280;53566;50.814;20.688;2022-08-07T20:49:41;102215.2;;;14.57;71.12
66666;BME280;53566;50.814;20.688;2022-08-07T20:56:08;102239.42;;;14.41;71.22
66666;BME280;53566;50.814;20.688;2022-08-07T21:00:06;102175.39;;;14.29;71.64999999999999
66666;BME280;53566;50.814;20.688;2022-08-07T21:07:14;102222.13;;;14.25;72.12
66666;BME280;53566;50.814;20.688;2022-08-07T21:14:05;102279.78;;;14.09;72.66
66666;BME280;53566;50.814;20.688;2022-08-07T21:21:11;102291.74;;;13.96;73.24
66666;BME280;53566;50.814;20.688;2022-08-07T21:28:07;102188.6;;;13.84;73.83
66666;BME280;53566;50.814;20.688;2022-08-07T21:35:55;102163.4;;;13.72;73.60000000000001
66666;BME280;53566;50.814;20.688;2022-08-07T21:42:17;102250.9;;;13.67;74.5
66666;BME280;53566;50.814;20.688;2022-08-07T21:49:37;102228.71;;;13.51;74.92
66666;BME280;53566;50.814;20.688;2022-08-07T22:00:12;102211.1;;;13.479999999999999;74.53
66666;BME280;53566;50.814;20.688;2022-08-07T22:07:41;102316.12;;;13.42;74.71
66666;BME280;53566;50.814;20.688;2022-08-07T22:14:18;102293.45;;;13.340000000000002;75.34
66666;BME280;53566;50.814;20.688;2022-08-07T22:21:25;102206.87;;;13.13;75.96000000000001
66666;BME280;53566;50.814;20.688;2022-08-07T22:35:17;102356.07;;;12.79;78.46000000000001
66666;BME280;53566;50.814;20.688;2022-08-07T22:42:44;102220.8;;;12.58;79.13
66666;BME280;53566;50.814;20.688;2022-08-07T22:56:04;102284.41;;;12.34;80.24
66666;BME280;53566;50.814;20.688;2022-08-07T23:00:15;102279.72;;;12.31;80.19
66666;BME280;53566;50.814;20.688;2022-08-07T23:07:41;102212.67;;;12.29;80.63
66666;BME280;53566;50.814;20.688;2022-08-07T23:21:54;102300.88;;;12.22;80.5
66666;BME280;53566;50.814;20.688;2022-08-07T23:28:14;102192.92;;;12.09;80.60000000000001
66666;BME280;53566;50.814;20.688;2022-08-07T23:35:11;102352.14;;;12.069999999999999;80.74
66666;BME280;53566;50.814;20.688;2022-08-07T23:56:37;102269.23;;;11.85;81.28
